sensor_id;sensor_type;location;lat;lon;timestamp;temperature;humidity
13521;DHT22;6832;51.186;3.236;2023-06-14T00:02:16;30.20;46.20
13521;DHT22;6832;51.186;3.236;2023-06-14T00:04:43;30.20;46.30
13521;DHT22;6832;51.186;3.236;2023-06-14T00:07:11;30.20;46.30
13521;DHT22;6832;51.186;3.236;2023-06-14T00:09:39;30.10;46.20
13521;DHT22;6832;51.186;3.236;2023-06-14T00:12:06;30.20;46.90
13521;DHT22;6832;51.186;3.236;2023-06-14T00:14:34;30.10;46.20
13521;DHT22;6832;51.186;3.236;2023-06-14T00:17:02;30.10;46.20
13521;DHT22;6832;51.186;3.236;2023-06-14T00:19:29;30.10;46.20
13521;DHT22;6832;51.186;3.236;2023-06-14T00:21:58;30.10;46.20
13521;DHT22;6832;51.186;3.236;2023-06-14T00:24:25;30.10;46.20
13521;DHT22;6832;51.186;3.236;2023-06-14T00:26:52;30.10;46.20
13521;DHT22;6832;51.186;3.236;2023-06-14T00:29:20;30.10;46.20
13521;DHT22;6832;51.186;3.236;2023-06-14T00:31:47;30.10;46.20
13521;DHT22;6832;51.186;3.236;2023-06-14T00:34:15;30.10;46.20
13521;DHT22;6832;51.186;3.236;2023-06-14T00:36:42;30.10;46.10
13521;DHT22;6832;51.186;3.236;2023-06-14T00:39:09;30.00;46.10
13521;DHT22;6832;51.186;3.236;2023-06-14T00:41:37;30.00;46.10
13521;DHT22;6832;51.186;3.236;2023-06-14T00:44:04;30.00;46.10
13521;DHT22;6832;51.186;3.236;2023-06-14T00:46:31;30.00;46.10
13521;DHT22;6832;51.186;3.236;2023-06-14T00:48:58;30.00;46.10
13521;DHT22;6832;51.186;3.236;2023-06-14T00:51:28;30.00;46.10
13521;DHT22;6832;51.186;3.236;2023-06-14T00:53:55;30.00;46.10
13521;DHT22;6832;51.186;3.236;2023-06-14T00:56:22;29.90;46.00
13521;DHT22;6832;51.186;3.236;2023-06-14T00:58:50;29.90;46.00
13521;DHT22;6832;51.186;3.236;2023-06-14T01:01:17;29.90;46.00
13521;DHT22;6832;51.186;3.236;2023-06-14T01:03:44;29.90;46.00
13521;DHT22;6832;51.186;3.236;2023-06-14T01:06:18;29.90;46.00
13521;DHT22;6832;51.186;3.236;2023-06-14T01:09:03;29.90;46.00
13521;DHT22;6832;51.186;3.236;2023-06-14T01:11:35;29.90;46.00
13521;DHT22;6832;51.186;3.236;2023-06-14T01:14:06;29.90;46.00
13521;DHT22;6832;51.186;3.236;2023-06-14T01:16:34;29.80;46.00
13521;DHT22;6832;51.186;3.236;2023-06-14T01:19:05;29.80;45.90
13521;DHT22;6832;51.186;3.236;2023-06-14T01:21:35;29.80;45.90
13521;DHT22;6832;51.186;3.236;2023-06-14T01:24:08;29.80;45.90
13521;DHT22;6832;51.186;3.236;2023-06-14T01:26:36;29.80;45.90
13521;DHT22;6832;51.186;3.236;2023-06-14T01:29:05;29.70;45.90
13521;DHT22;6832;51.186;3.236;2023-06-14T01:31:33;29.70;45.90
13521;DHT22;6832;51.186;3.236;2023-06-14T01:34:07;29.70;45.90
13521;DHT22;6832;51.186;3.236;2023-06-14T01:36:36;29.70;45.90
13521;DHT22;6832;51.186;3.236;2023-06-14T01:39:05;29.70;45.90
13521;DHT22;6832;51.186;3.236;2023-06-14T01:41:34;29.70;45.90
13521;DHT22;6832;51.186;3.236;2023-06-14T01:44:02;29.60;45.80
13521;DHT22;6832;51.186;3.236;2023-06-14T01:46:30;29.70;45.90
13521;DHT22;6832;51.186;3.236;2023-06-14T01:48:56;29.70;45.90
13521;DHT22;6832;51.186;3.236;2023-06-14T01:51:23;29.60;45.80
13521;DHT22;6832;51.186;3.236;2023-06-14T01:53:50;29.60;46.40
13521;DHT22;6832;51.186;3.236;2023-06-14T01:56:18;29.60;45.80
13521;DHT22;6832;51.186;3.236;2023-06-14T01:58:46;29.60;45.80
13521;DHT22;6832;51.186;3.236;2023-06-14T02:01:14;29.60;45.80
13521;DHT22;6832;51.186;3.236;2023-06-14T02:03:41;29.60;45.80
13521;DHT22;6832;51.186;3.236;2023-06-14T02:06:10;29.60;45.80
13521;DHT22;6832;51.186;3.236;2023-06-14T02:08:37;29.50;45.70
13521;DHT22;6832;51.186;3.236;2023-06-14T02:11:04;29.50;45.70
13521;DHT22;6832;51.186;3.236;2023-06-14T02:13:31;29.50;45.80
13521;DHT22;6832;51.186;3.236;2023-06-14T02:15:59;29.50;45.70
13521;DHT22;6832;51.186;3.236;2023-06-14T02:18:27;29.50;45.70
13521;DHT22;6832;51.186;3.236;2023-06-14T02:20:54;29.50;45.80
13521;DHT22;6832;51.186;3.236;2023-06-14T02:23:21;29.50;45.70
13521;DHT22;6832;51.186;3.236;2023-06-14T02:25:47;29.40;45.70
13521;DHT22;6832;51.186;3.236;2023-06-14T02:28:14;29.40;45.70
13521;DHT22;6832;51.186;3.236;2023-06-14T02:30:41;29.40;45.70
13521;DHT22;6832;51.186;3.236;2023-06-14T02:33:10;29.40;45.70
13521;DHT22;6832;51.186;3.236;2023-06-14T02:35:38;29.40;45.70
13521;DHT22;6832;51.186;3.236;2023-06-14T02:38:05;29.40;45.70
13521;DHT22;6832;51.186;3.236;2023-06-14T02:40:32;29.40;45.70
13521;DHT22;6832;51.186;3.236;2023-06-14T02:42:59;29.40;45.70
13521;DHT22;6832;51.186;3.236;2023-06-14T02:45:25;29.30;45.60
13521;DHT22;6832;51.186;3.236;2023-06-14T02:47:52;29.30;45.60
13521;DHT22;6832;51.186;3.236;2023-06-14T02:50:22;29.30;45.60
13521;DHT22;6832;51.186;3.236;2023-06-14T02:52:49;29.30;45.60
13521;DHT22;6832;51.186;3.236;2023-06-14T02:55:16;29.30;45.60
13521;DHT22;6832;51.186;3.236;2023-06-14T02:57:43;29.30;45.60
13521;DHT22;6832;51.186;3.236;2023-06-14T03:00:10;29.30;45.60
13521;DHT22;6832;51.186;3.236;2023-06-14T03:02:38;29.30;45.60
13521;DHT22;6832;51.186;3.236;2023-06-14T03:05:06;29.20;45.50
13521;DHT22;6832;51.186;3.236;2023-06-14T03:07:35;29.20;45.50
13521;DHT22;6832;51.186;3.236;2023-06-14T03:10:07;29.20;45.50
13521;DHT22;6832;51.186;3.236;2023-06-14T03:12:35;29.20;45.50
13521;DHT22;6832;51.186;3.236;2023-06-14T03:15:03;29.10;45.40
13521;DHT22;6832;51.186;3.236;2023-06-14T03:17:30;29.20;45.50
13521;DHT22;6832;51.186;3.236;2023-06-14T03:19:59;29.10;45.40
13521;DHT22;6832;51.186;3.236;2023-06-14T03:22:26;29.10;45.40
13521;DHT22;6832;51.186;3.236;2023-06-14T03:24:55;29.10;45.40
13521;DHT22;6832;51.186;3.236;2023-06-14T03:27:22;29.10;45.40
13521;DHT22;6832;51.186;3.236;2023-06-14T03:29:49;29.10;45.40
13521;DHT22;6832;51.186;3.236;2023-06-14T03:32:16;29.10;45.40
13521;DHT22;6832;51.186;3.236;2023-06-14T03:34:43;29.00;45.40
13521;DHT22;6832;51.186;3.236;2023-06-14T03:37:10;29.10;45.40
13521;DHT22;6832;51.186;3.236;2023-06-14T03:39:37;29.00;45.40
13521;DHT22;6832;51.186;3.236;2023-06-14T03:42:13;29.00;45.40
13521;DHT22;6832;51.186;3.236;2023-06-14T03:44:40;29.00;45.40
13521;DHT22;6832;51.186;3.236;2023-06-14T03:47:07;29.00;45.40
13521;DHT22;6832;51.186;3.236;2023-06-14T03:49:34;28.90;45.30
13521;DHT22;6832;51.186;3.236;2023-06-14T03:52:03;28.90;45.40
13521;DHT22;6832;51.186;3.236;2023-06-14T03:54:30;28.90;45.40
13521;DHT22;6832;51.186;3.236;2023-06-14T03:56:58;28.90;45.40
13521;DHT22;6832;51.186;3.236;2023-06-14T03:59:26;28.80;45.30
13521;DHT22;6832;51.186;3.236;2023-06-14T04:01:54;28.90;46.00
13521;DHT22;6832;51.186;3.236;2023-06-14T04:04:21;28.90;45.40
13521;DHT22;6832;51.186;3.236;2023-06-14T04:06:54;28.80;45.40
13521;DHT22;6832;51.186;3.236;2023-06-14T04:09:23;28.80;45.40
13521;DHT22;6832;51.186;3.236;2023-06-14T04:11:51;28.80;45.40
13521;DHT22;6832;51.186;3.236;2023-06-14T04:14:18;28.80;45.40
13521;DHT22;6832;51.186;3.236;2023-06-14T04:16:47;28.80;45.40
13521;DHT22;6832;51.186;3.236;2023-06-14T04:19:14;28.80;45.40
13521;DHT22;6832;51.186;3.236;2023-06-14T04:21:41;28.80;45.40
13521;DHT22;6832;51.186;3.236;2023-06-14T04:24:08;28.70;45.40
13521;DHT22;6832;51.186;3.236;2023-06-14T04:26:38;28.70;45.40
13521;DHT22;6832;51.186;3.236;2023-06-14T04:29:06;28.70;45.40
13521;DHT22;6832;51.186;3.236;2023-06-14T04:31:32;28.70;45.40
13521;DHT22;6832;51.186;3.236;2023-06-14T04:34:04;28.70;45.40
13521;DHT22;6832;51.186;3.236;2023-06-14T04:36:32;28.70;45.40
13521;DHT22;6832;51.186;3.236;2023-06-14T04:39:00;28.70;45.40
13521;DHT22;6832;51.186;3.236;2023-06-14T04:41:28;28.70;45.40
13521;DHT22;6832;51.186;3.236;2023-06-14T04:43:56;28.60;45.40
13521;DHT22;6832;51.186;3.236;2023-06-14T04:46:27;28.60;45.40
13521;DHT22;6832;51.186;3.236;2023-06-14T04:48:54;28.60;45.40
13521;DHT22;6832;51.186;3.236;2023-06-14T04:51:23;28.60;45.40
13521;DHT22;6832;51.186;3.236;2023-06-14T04:53:55;28.60;45.40
13521;DHT22;6832;51.186;3.236;2023-06-14T04:56:23;28.60;45.40
13521;DHT22;6832;51.186;3.236;2023-06-14T04:58:50;28.60;45.40
13521;DHT22;6832;51.186;3.236;2023-06-14T05:01:18;28.60;45.40
13521;DHT22;6832;51.186;3.236;2023-06-14T05:03:45;28.60;45.40
13521;DHT22;6832;51.186;3.236;2023-06-14T05:06:14;28.60;45.40
13521;DHT22;6832;51.186;3.236;2023-06-14T05:08:42;28.50;45.40
13521;DHT22;6832;51.186;3.236;2023-06-14T05:11:09;28.50;45.40
13521;DHT22;6832;51.186;3.236;2023-06-14T05:13:36;28.50;45.40
13521;DHT22;6832;51.186;3.236;2023-06-14T05:16:03;28.50;45.40
13521;DHT22;6832;51.186;3.236;2023-06-14T05:18:30;28.50;45.40
13521;DHT22;6832;51.186;3.236;2023-06-14T05:20:59;28.50;45.40
13521;DHT22;6832;51.186;3.236;2023-06-14T05:23:26;28.50;45.50
13521;DHT22;6832;51.186;3.236;2023-06-14T05:25:54;28.50;45.50
13521;DHT22;6832;51.186;3.236;2023-06-14T05:28:22;28.50;45.50
13521;DHT22;6832;51.186;3.236;2023-06-14T05:30:49;28.50;45.50
13521;DHT22;6832;51.186;3.236;2023-06-14T05:33:16;28.50;45.50
13521;DHT22;6832;51.186;3.236;2023-06-14T05:35:43;28.50;45.50
13521;DHT22;6832;51.186;3.236;2023-06-14T05:38:09;28.50;45.50
13521;DHT22;6832;51.186;3.236;2023-06-14T05:40:36;28.50;45.50
13521;DHT22;6832;51.186;3.236;2023-06-14T05:43:05;28.50;45.50
13521;DHT22;6832;51.186;3.236;2023-06-14T05:45:32;28.50;45.50
13521;DHT22;6832;51.186;3.236;2023-06-14T05:47:58;28.50;45.50
13521;DHT22;6832;51.186;3.236;2023-06-14T05:50:25;28.50;45.70
13521;DHT22;6832;51.186;3.236;2023-06-14T05:52:53;28.50;45.70
13521;DHT22;6832;51.186;3.236;2023-06-14T05:55:20;28.50;45.80
13521;DHT22;6832;51.186;3.236;2023-06-14T05:57:47;28.50;45.90
13521;DHT22;6832;51.186;3.236;2023-06-14T06:00:16;28.40;45.80
13521;DHT22;6832;51.186;3.236;2023-06-14T06:02:45;28.50;45.90
13521;DHT22;6832;51.186;3.236;2023-06-14T06:05:13;28.50;45.90
13521;DHT22;6832;51.186;3.236;2023-06-14T06:07:41;28.50;45.90
13521;DHT22;6832;51.186;3.236;2023-06-14T06:10:10;28.50;46.00
13521;DHT22;6832;51.186;3.236;2023-06-14T06:12:37;28.50;46.10
13521;DHT22;6832;51.186;3.236;2023-06-14T06:15:04;28.50;46.20
13521;DHT22;6832;51.186;3.236;2023-06-14T06:17:33;28.50;46.20
13521;DHT22;6832;51.186;3.236;2023-06-14T06:20:00;28.50;46.30
13521;DHT22;6832;51.186;3.236;2023-06-14T06:22:27;28.50;46.30
13521;DHT22;6832;51.186;3.236;2023-06-14T06:24:54;28.50;46.40
13521;DHT22;6832;51.186;3.236;2023-06-14T06:27:21;28.50;46.40
13521;DHT22;6832;51.186;3.236;2023-06-14T06:29:48;28.50;46.40
13521;DHT22;6832;51.186;3.236;2023-06-14T06:32:15;28.60;46.50
13521;DHT22;6832;51.186;3.236;2023-06-14T06:34:43;28.60;46.50
13521;DHT22;6832;51.186;3.236;2023-06-14T06:37:10;28.60;46.60
13521;DHT22;6832;51.186;3.236;2023-06-14T06:39:37;28.60;46.50
13521;DHT22;6832;51.186;3.236;2023-06-14T06:42:05;28.70;46.60
13521;DHT22;6832;51.186;3.236;2023-06-14T06:44:32;28.70;46.60
13521;DHT22;6832;51.186;3.236;2023-06-14T06:46:58;28.70;46.60
13521;DHT22;6832;51.186;3.236;2023-06-14T06:49:25;28.70;46.60
13521;DHT22;6832;51.186;3.236;2023-06-14T06:52:04;28.80;46.70
13521;DHT22;6832;51.186;3.236;2023-06-14T06:54:32;28.80;46.70
13521;DHT22;6832;51.186;3.236;2023-06-14T06:56:59;28.80;46.60
13521;DHT22;6832;51.186;3.236;2023-06-14T06:59:27;28.80;46.60
13521;DHT22;6832;51.186;3.236;2023-06-14T07:01:54;28.90;46.70
13521;DHT22;6832;51.186;3.236;2023-06-14T07:04:21;28.90;46.70
13521;DHT22;6832;51.186;3.236;2023-06-14T07:06:48;28.90;46.70
13521;DHT22;6832;51.186;3.236;2023-06-14T07:09:16;28.90;46.60
13521;DHT22;6832;51.186;3.236;2023-06-14T07:11:46;29.00;46.80
13521;DHT22;6832;51.186;3.236;2023-06-14T07:14:13;29.00;46.70
13521;DHT22;6832;51.186;3.236;2023-06-14T07:16:40;29.00;46.80
13521;DHT22;6832;51.186;3.236;2023-06-14T07:19:08;29.10;46.90
13521;DHT22;6832;51.186;3.236;2023-06-14T07:21:35;29.10;47.00
13521;DHT22;6832;51.186;3.236;2023-06-14T07:24:04;29.10;46.90
13521;DHT22;6832;51.186;3.236;2023-06-14T07:26:33;29.10;46.90
13521;DHT22;6832;51.186;3.236;2023-06-14T07:29:00;29.10;46.90
13521;DHT22;6832;51.186;3.236;2023-06-14T07:31:27;29.20;46.90
13521;DHT22;6832;51.186;3.236;2023-06-14T07:33:54;29.20;46.90
13521;DHT22;6832;51.186;3.236;2023-06-14T07:36:21;29.20;46.90
13521;DHT22;6832;51.186;3.236;2023-06-14T07:38:48;29.20;46.90
13521;DHT22;6832;51.186;3.236;2023-06-14T07:41:16;29.30;47.00
13521;DHT22;6832;51.186;3.236;2023-06-14T07:43:44;29.30;46.90
13521;DHT22;6832;51.186;3.236;2023-06-14T07:46:11;29.30;47.00
13521;DHT22;6832;51.186;3.236;2023-06-14T07:48:38;29.30;46.90
13521;DHT22;6832;51.186;3.236;2023-06-14T07:51:04;29.30;46.90
13521;DHT22;6832;51.186;3.236;2023-06-14T07:53:31;29.40;47.00
13521;DHT22;6832;51.186;3.236;2023-06-14T07:55:58;29.40;46.90
13521;DHT22;6832;51.186;3.236;2023-06-14T07:58:25;29.40;46.90
13521;DHT22;6832;51.186;3.236;2023-06-14T08:00:54;29.50;47.00
13521;DHT22;6832;51.186;3.236;2023-06-14T08:03:21;29.50;47.00
13521;DHT22;6832;51.186;3.236;2023-06-14T08:05:48;29.50;47.00
13521;DHT22;6832;51.186;3.236;2023-06-14T08:08:15;29.50;46.90
13521;DHT22;6832;51.186;3.236;2023-06-14T08:10:42;29.50;47.00
13521;DHT22;6832;51.186;3.236;2023-06-14T08:13:09;29.60;47.00
13521;DHT22;6832;51.186;3.236;2023-06-14T08:15:36;29.60;47.00
13521;DHT22;6832;51.186;3.236;2023-06-14T08:18:04;29.60;47.00
13521;DHT22;6832;51.186;3.236;2023-06-14T08:20:31;29.60;47.70
13521;DHT22;6832;51.186;3.236;2023-06-14T08:23:00;29.60;47.00
13521;DHT22;6832;51.186;3.236;2023-06-14T08:25:27;29.70;47.10
13521;DHT22;6832;51.186;3.236;2023-06-14T08:27:54;29.70;47.10
13521;DHT22;6832;51.186;3.236;2023-06-14T08:30:21;29.70;47.10
13521;DHT22;6832;51.186;3.236;2023-06-14T08:32:48;29.70;47.20
13521;DHT22;6832;51.186;3.236;2023-06-14T08:35:16;29.80;47.20
13521;DHT22;6832;51.186;3.236;2023-06-14T08:37:44;29.80;47.20
13521;DHT22;6832;51.186;3.236;2023-06-14T08:40:18;29.80;47.20
13521;DHT22;6832;51.186;3.236;2023-06-14T08:42:48;29.80;47.30
13521;DHT22;6832;51.186;3.236;2023-06-14T08:45:16;29.80;47.10
13521;DHT22;6832;51.186;3.236;2023-06-14T08:47:44;29.90;47.20
13521;DHT22;6832;51.186;3.236;2023-06-14T08:50:11;29.90;47.80
13521;DHT22;6832;51.186;3.236;2023-06-14T08:52:45;29.90;47.20
13521;DHT22;6832;51.186;3.236;2023-06-14T08:55:16;29.90;47.20
13521;DHT22;6832;51.186;3.236;2023-06-14T08:57:46;30.00;47.20
13521;DHT22;6832;51.186;3.236;2023-06-14T09:00:14;30.00;47.20
13521;DHT22;6832;51.186;3.236;2023-06-14T09:02:41;30.10;47.20
13521;DHT22;6832;51.186;3.236;2023-06-14T09:05:09;30.10;47.20
13521;DHT22;6832;51.186;3.236;2023-06-14T09:07:36;30.10;47.10
13521;DHT22;6832;51.186;3.236;2023-06-14T09:10:10;30.20;47.70
13521;DHT22;6832;51.186;3.236;2023-06-14T09:12:38;30.20;47.00
13521;DHT22;6832;51.186;3.236;2023-06-14T09:15:07;30.20;47.00
13521;DHT22;6832;51.186;3.236;2023-06-14T09:17:34;30.20;47.00
13521;DHT22;6832;51.186;3.236;2023-06-14T09:20:02;30.30;47.00
13521;DHT22;6832;51.186;3.236;2023-06-14T09:22:34;30.30;47.00
13521;DHT22;6832;51.186;3.236;2023-06-14T09:25:01;30.30;47.00
13521;DHT22;6832;51.186;3.236;2023-06-14T09:27:30;30.30;47.00
13521;DHT22;6832;51.186;3.236;2023-06-14T09:29:57;30.40;47.10
13521;DHT22;6832;51.186;3.236;2023-06-14T09:32:24;30.40;46.40
13521;DHT22;6832;51.186;3.236;2023-06-14T09:34:51;30.50;46.70
13521;DHT22;6832;51.186;3.236;2023-06-14T09:37:28;30.50;46.90
13521;DHT22;6832;51.186;3.236;2023-06-14T09:39:56;30.50;47.00
13521;DHT22;6832;51.186;3.236;2023-06-14T09:42:23;30.60;47.00
13521;DHT22;6832;51.186;3.236;2023-06-14T09:44:55;30.60;47.00
13521;DHT22;6832;51.186;3.236;2023-06-14T09:47:23;30.70;47.30
13521;DHT22;6832;51.186;3.236;2023-06-14T09:49:50;30.70;46.70
13521;DHT22;6832;51.186;3.236;2023-06-14T09:52:21;30.70;45.70
13521;DHT22;6832;51.186;3.236;2023-06-14T09:54:49;30.70;45.30
13521;DHT22;6832;51.186;3.236;2023-06-14T09:57:20;30.80;45.00
13521;DHT22;6832;51.186;3.236;2023-06-14T09:59:48;30.80;45.40
13521;DHT22;6832;51.186;3.236;2023-06-14T10:02:27;30.80;45.00
13521;DHT22;6832;51.186;3.236;2023-06-14T10:05:01;30.90;44.60
13521;DHT22;6832;51.186;3.236;2023-06-14T10:07:35;30.90;45.50
13521;DHT22;6832;51.186;3.236;2023-06-14T10:10:02;30.90;45.50
13521;DHT22;6832;51.186;3.236;2023-06-14T10:12:29;30.90;45.00
13521;DHT22;6832;51.186;3.236;2023-06-14T10:14:56;30.90;44.50
13521;DHT22;6832;51.186;3.236;2023-06-14T10:17:33;30.90;45.10
13521;DHT22;6832;51.186;3.236;2023-06-14T10:20:15;31.00;45.10
13521;DHT22;6832;51.186;3.236;2023-06-14T10:22:47;31.00;44.40
13521;DHT22;6832;51.186;3.236;2023-06-14T10:25:26;31.10;45.20
13521;DHT22;6832;51.186;3.236;2023-06-14T10:28:03;31.10;43.80
13521;DHT22;6832;51.186;3.236;2023-06-14T10:30:31;31.20;43.80
13521;DHT22;6832;51.186;3.236;2023-06-14T10:33:06;31.20;44.70
13521;DHT22;6832;51.186;3.236;2023-06-14T10:35:35;31.20;45.00
13521;DHT22;6832;51.186;3.236;2023-06-14T10:38:09;31.30;45.30
13521;DHT22;6832;51.186;3.236;2023-06-14T10:40:36;31.30;45.30
13521;DHT22;6832;51.186;3.236;2023-06-14T10:43:21;31.40;45.40
13521;DHT22;6832;51.186;3.236;2023-06-14T10:46:16;31.40;45.80
13521;DHT22;6832;51.186;3.236;2023-06-14T10:48:45;31.50;45.20
13521;DHT22;6832;51.186;3.236;2023-06-14T10:51:19;31.60;45.50
13521;DHT22;6832;51.186;3.236;2023-06-14T10:53:47;31.60;44.50
13521;DHT22;6832;51.186;3.236;2023-06-14T10:56:27;31.70;44.20
13521;DHT22;6832;51.186;3.236;2023-06-14T10:58:54;31.80;44.40
13521;DHT22;6832;51.186;3.236;2023-06-14T11:01:32;31.80;44.30
13521;DHT22;6832;51.186;3.236;2023-06-14T11:04:08;32.00;44.40
13521;DHT22;6832;51.186;3.236;2023-06-14T11:06:46;32.10;45.20
13521;DHT22;6832;51.186;3.236;2023-06-14T11:12:32;32.50;45.50
13521;DHT22;6832;51.186;3.236;2023-06-14T11:15:01;32.60;44.90
13521;DHT22;6832;51.186;3.236;2023-06-14T11:17:28;32.80;45.10
13521;DHT22;6832;51.186;3.236;2023-06-14T11:20:09;33.00;45.20
13521;DHT22;6832;51.186;3.236;2023-06-14T11:22:39;33.20;45.80
13521;DHT22;6832;51.186;3.236;2023-06-14T11:25:08;33.40;45.80
13521;DHT22;6832;51.186;3.236;2023-06-14T11:27:35;33.50;44.00
13521;DHT22;6832;51.186;3.236;2023-06-14T11:30:03;33.80;45.90
13521;DHT22;6832;51.186;3.236;2023-06-14T11:32:31;33.90;43.10
13521;DHT22;6832;51.186;3.236;2023-06-14T11:34:58;34.10;43.90
13521;DHT22;6832;51.186;3.236;2023-06-14T11:37:27;34.30;44.40
13521;DHT22;6832;51.186;3.236;2023-06-14T11:39:56;34.50;44.60
13521;DHT22;6832;51.186;3.236;2023-06-14T11:42:24;34.70;44.60
13521;DHT22;6832;51.186;3.236;2023-06-14T11:44:51;34.90;44.40
13521;DHT22;6832;51.186;3.236;2023-06-14T11:47:18;35.00;43.00
13521;DHT22;6832;51.186;3.236;2023-06-14T11:49:45;35.20;43.80
13521;DHT22;6832;51.186;3.236;2023-06-14T11:52:12;35.40;43.70
13521;DHT22;6832;51.186;3.236;2023-06-14T11:54:41;35.50;43.00
13521;DHT22;6832;51.186;3.236;2023-06-14T11:57:08;35.70;43.30
13521;DHT22;6832;51.186;3.236;2023-06-14T11:59:38;35.80;44.00
13521;DHT22;6832;51.186;3.236;2023-06-14T12:02:05;36.00;43.40
13521;DHT22;6832;51.186;3.236;2023-06-14T12:04:33;36.10;43.40
13521;DHT22;6832;51.186;3.236;2023-06-14T12:07:08;36.20;43.30
13521;DHT22;6832;51.186;3.236;2023-06-14T12:09:41;36.40;41.90
13521;DHT22;6832;51.186;3.236;2023-06-14T12:12:09;36.50;43.10
13521;DHT22;6832;51.186;3.236;2023-06-14T12:14:36;36.60;42.50
13521;DHT22;6832;51.186;3.236;2023-06-14T12:17:06;36.70;42.70
13521;DHT22;6832;51.186;3.236;2023-06-14T12:19:40;36.90;42.60
13521;DHT22;6832;51.186;3.236;2023-06-14T12:22:09;37.00;41.70
13521;DHT22;6832;51.186;3.236;2023-06-14T12:24:36;37.10;39.90
13521;DHT22;6832;51.186;3.236;2023-06-14T12:27:06;37.20;41.30
13521;DHT22;6832;51.186;3.236;2023-06-14T12:29:32;37.30;41.40
13521;DHT22;6832;51.186;3.236;2023-06-14T12:31:59;37.40;41.40
13521;DHT22;6832;51.186;3.236;2023-06-14T12:34:27;37.50;41.50
13521;DHT22;6832;51.186;3.236;2023-06-14T12:36:53;37.50;40.00
13521;DHT22;6832;51.186;3.236;2023-06-14T12:39:21;37.60;39.70
13521;DHT22;6832;51.186;3.236;2023-06-14T12:41:48;37.70;39.10
13521;DHT22;6832;51.186;3.236;2023-06-14T12:44:16;37.80;40.00
13521;DHT22;6832;51.186;3.236;2023-06-14T12:46:43;37.90;40.20
13521;DHT22;6832;51.186;3.236;2023-06-14T12:49:11;37.90;40.30
13521;DHT22;6832;51.186;3.236;2023-06-14T12:51:38;37.90;40.00
13521;DHT22;6832;51.186;3.236;2023-06-14T12:54:06;37.90;40.00
13521;DHT22;6832;51.186;3.236;2023-06-14T12:56:32;38.00;39.30
13521;DHT22;6832;51.186;3.236;2023-06-14T12:58:59;38.00;38.20
13521;DHT22;6832;51.186;3.236;2023-06-14T13:01:27;38.10;39.10
13521;DHT22;6832;51.186;3.236;2023-06-14T13:03:54;38.10;38.80
13521;DHT22;6832;51.186;3.236;2023-06-14T13:06:22;38.10;39.00
13521;DHT22;6832;51.186;3.236;2023-06-14T13:08:50;38.10;37.60
13521;DHT22;6832;51.186;3.236;2023-06-14T13:11:16;38.00;38.40
13521;DHT22;6832;51.186;3.236;2023-06-14T13:13:43;38.00;38.20
13521;DHT22;6832;51.186;3.236;2023-06-14T13:16:10;38.00;38.50
13521;DHT22;6832;51.186;3.236;2023-06-14T13:18:41;37.90;38.10
13521;DHT22;6832;51.186;3.236;2023-06-14T13:21:08;37.80;38.30
13521;DHT22;6832;51.186;3.236;2023-06-14T13:23:35;37.70;38.40
13521;DHT22;6832;51.186;3.236;2023-06-14T13:26:01;37.60;38.40
13521;DHT22;6832;51.186;3.236;2023-06-14T13:28:28;37.50;38.60
13521;DHT22;6832;51.186;3.236;2023-06-14T13:30:57;37.40;38.70
13521;DHT22;6832;51.186;3.236;2023-06-14T13:33:24;37.30;39.20
13521;DHT22;6832;51.186;3.236;2023-06-14T13:35:52;37.20;38.90
13521;DHT22;6832;51.186;3.236;2023-06-14T13:38:19;37.00;38.90
13521;DHT22;6832;51.186;3.236;2023-06-14T13:40:46;36.90;39.20
13521;DHT22;6832;51.186;3.236;2023-06-14T13:43:13;36.80;39.10
13521;DHT22;6832;51.186;3.236;2023-06-14T13:45:39;36.60;39.00
13521;DHT22;6832;51.186;3.236;2023-06-14T13:48:06;36.50;39.20
13521;DHT22;6832;51.186;3.236;2023-06-14T13:50:33;36.40;38.80
13521;DHT22;6832;51.186;3.236;2023-06-14T13:53:01;36.30;38.80
13521;DHT22;6832;51.186;3.236;2023-06-14T13:55:28;36.10;38.30
13521;DHT22;6832;51.186;3.236;2023-06-14T13:57:55;36.00;38.60
13521;DHT22;6832;51.186;3.236;2023-06-14T14:00:23;35.90;39.00
13521;DHT22;6832;51.186;3.236;2023-06-14T14:02:50;35.80;38.50
13521;DHT22;6832;51.186;3.236;2023-06-14T14:05:17;35.70;38.40
13521;DHT22;6832;51.186;3.236;2023-06-14T14:07:46;35.50;38.40
13521;DHT22;6832;51.186;3.236;2023-06-14T14:10:14;35.50;38.30
13521;DHT22;6832;51.186;3.236;2023-06-14T14:12:41;35.40;38.20
13521;DHT22;6832;51.186;3.236;2023-06-14T14:15:08;35.30;38.60
13521;DHT22;6832;51.186;3.236;2023-06-14T14:17:38;35.20;39.00
13521;DHT22;6832;51.186;3.236;2023-06-14T14:20:06;35.10;39.50
13521;DHT22;6832;51.186;3.236;2023-06-14T14:22:33;35.00;39.20
13521;DHT22;6832;51.186;3.236;2023-06-14T14:25:00;34.90;39.30
13521;DHT22;6832;51.186;3.236;2023-06-14T14:27:28;34.80;38.90
13521;DHT22;6832;51.186;3.236;2023-06-14T14:29:55;34.80;38.90
13521;DHT22;6832;51.186;3.236;2023-06-14T14:32:22;34.70;39.30
13521;DHT22;6832;51.186;3.236;2023-06-14T14:34:49;34.60;39.60
13521;DHT22;6832;51.186;3.236;2023-06-14T14:37:16;34.60;39.30
13521;DHT22;6832;51.186;3.236;2023-06-14T14:39:45;34.50;39.50
13521;DHT22;6832;51.186;3.236;2023-06-14T14:42:12;34.50;39.40
13521;DHT22;6832;51.186;3.236;2023-06-14T14:44:41;34.40;39.10
13521;DHT22;6832;51.186;3.236;2023-06-14T14:47:08;34.40;39.20
13521;DHT22;6832;51.186;3.236;2023-06-14T14:49:34;34.40;39.00
13521;DHT22;6832;51.186;3.236;2023-06-14T14:52:01;34.30;38.90
13521;DHT22;6832;51.186;3.236;2023-06-14T14:54:28;34.20;39.00
13521;DHT22;6832;51.186;3.236;2023-06-14T14:56:55;34.20;39.50
13521;DHT22;6832;51.186;3.236;2023-06-14T14:59:22;34.10;39.00
13521;DHT22;6832;51.186;3.236;2023-06-14T15:01:50;34.10;38.50
13521;DHT22;6832;51.186;3.236;2023-06-14T15:04:17;34.10;38.90
13521;DHT22;6832;51.186;3.236;2023-06-14T15:06:44;34.00;38.50
13521;DHT22;6832;51.186;3.236;2023-06-14T15:09:11;34.00;38.50
13521;DHT22;6832;51.186;3.236;2023-06-14T15:11:38;33.90;38.10
13521;DHT22;6832;51.186;3.236;2023-06-14T15:14:05;33.90;38.90
13521;DHT22;6832;51.186;3.236;2023-06-14T15:16:32;33.80;38.30
13521;DHT22;6832;51.186;3.236;2023-06-14T15:19:00;33.80;38.90
13521;DHT22;6832;51.186;3.236;2023-06-14T15:21:27;33.70;38.30
13521;DHT22;6832;51.186;3.236;2023-06-14T15:23:54;33.70;37.80
13521;DHT22;6832;51.186;3.236;2023-06-14T15:26:21;33.70;37.60
13521;DHT22;6832;51.186;3.236;2023-06-14T15:28:49;33.60;37.70
13521;DHT22;6832;51.186;3.236;2023-06-14T15:31:17;33.60;37.80
13521;DHT22;6832;51.186;3.236;2023-06-14T15:33:44;33.50;37.20
13521;DHT22;6832;51.186;3.236;2023-06-14T15:36:12;33.50;37.40
13521;DHT22;6832;51.186;3.236;2023-06-14T15:38:39;33.40;37.40
13521;DHT22;6832;51.186;3.236;2023-06-14T15:41:05;33.30;37.80
13521;DHT22;6832;51.186;3.236;2023-06-14T15:43:33;33.30;36.90
13521;DHT22;6832;51.186;3.236;2023-06-14T15:46:00;33.30;37.00
13521;DHT22;6832;51.186;3.236;2023-06-14T15:48:27;33.20;36.90
13521;DHT22;6832;51.186;3.236;2023-06-14T15:50:54;33.20;37.10
13521;DHT22;6832;51.186;3.236;2023-06-14T15:53:22;33.10;37.00
13521;DHT22;6832;51.186;3.236;2023-06-14T15:55:49;33.10;37.50